createdAt,value
2019-02-17T00:01:15.355Z,6.60
2019-02-17T00:03:46.162Z,6.70
2019-02-17T00:06:16.443Z,6.80
2019-02-17T00:08:46.730Z,6.80
2019-02-17T00:11:17.037Z,6.90
2019-02-17T00:13:47.851Z,6.90
2019-02-17T00:16:18.713Z,6.90
2019-02-17T00:18:48.949Z,7.00
2019-02-17T00:21:19.701Z,7.00
2019-02-17T00:23:49.879Z,7.10
2019-02-17T00:26:20.297Z,7.10
2019-02-17T00:28:59.108Z,7.20
2019-02-17T00:31:22.551Z,7.20
2019-02-17T00:33:52.797Z,7.20
2019-02-17T00:36:23.102Z,7.20
2019-02-17T00:38:53.363Z,7.20
2019-02-17T00:41:23.655Z,7.20
2019-02-17T00:43:54.266Z,7.30
2019-02-17T00:46:25.513Z,7.30
2019-02-17T00:48:56.259Z,7.30
2019-02-17T00:51:26.503Z,7.30
2019-02-17T00:53:57.005Z,7.30
2019-02-17T00:56:27.257Z,7.30
2019-02-17T00:58:57.757Z,7.30
2019-02-17T01:01:29.196Z,7.20
2019-02-17T01:03:59.592Z,7.30
2019-02-17T01:06:29.879Z,7.20
2019-02-17T01:09:00.493Z,7.10
2019-02-17T01:11:31.932Z,7.10
2019-02-17T01:14:03.396Z,7.10
2019-02-17T01:16:35.400Z,7.00
2019-02-17T01:19:05.991Z,6.90
2019-02-17T01:21:36.262Z,6.90
2019-02-17T01:24:06.738Z,6.90
2019-02-17T01:26:36.992Z,6.90
2019-02-17T01:29:07.450Z,6.80
2019-02-17T01:31:37.689Z,6.80
2019-02-17T01:34:11.097Z,6.70
2019-02-17T01:36:41.357Z,6.70
2019-02-17T01:39:11.595Z,6.70
2019-02-17T01:41:42.283Z,6.60
2019-02-17T01:44:12.520Z,6.60
2019-02-17T01:46:43.361Z,6.60
2019-02-17T01:49:13.614Z,6.50
2019-02-17T01:51:44.100Z,6.50
2019-02-17T01:54:14.348Z,6.40
2019-02-17T01:56:44.863Z,6.40
2019-02-17T01:59:15.086Z,6.40
2019-02-17T02:01:45.374Z,6.30
2019-02-17T02:04:16.135Z,6.30
2019-02-17T02:06:46.369Z,6.30
2019-02-17T02:09:16.877Z,6.30
2019-02-17T02:11:47.117Z,6.20
2019-02-17T02:14:18.347Z,6.20
2019-02-17T02:16:50.315Z,6.10
2019-02-17T02:19:23.425Z,6.10
2019-02-17T02:21:54.220Z,6.10
2019-02-17T02:24:24.563Z,6.00
2019-02-17T02:26:55.194Z,6.00
2019-02-17T02:29:25.516Z,6.00
2019-02-17T02:31:56.268Z,6.00
2019-02-17T02:34:26.543Z,5.90
2019-02-17T02:36:56.958Z,5.90
2019-02-17T02:39:27.240Z,5.90
2019-02-17T02:41:57.575Z,5.90
2019-02-17T02:44:28.358Z,5.90
2019-02-17T02:46:58.768Z,5.90
2019-02-17T02:49:29.367Z,5.80
2019-02-17T02:52:00.249Z,5.80
2019-02-17T02:54:30.606Z,5.80
2019-02-17T02:57:00.871Z,5.70
2019-02-17T02:59:31.455Z,5.70
2019-02-17T03:02:01.738Z,5.70
2019-02-17T03:04:32.503Z,5.70
2019-02-17T03:07:09.249Z,5.70
2019-02-17T03:09:39.545Z,5.70
2019-02-17T03:12:09.820Z,5.60
2019-02-17T03:14:41.699Z,5.60
2019-02-17T03:17:11.976Z,5.60
2019-02-17T03:19:42.261Z,5.60
2019-02-17T03:22:13.330Z,5.50
2019-02-17T03:24:43.582Z,5.60
2019-02-17T03:27:13.897Z,5.50
2019-02-17T03:29:44.560Z,5.50
2019-02-17T03:32:14.815Z,5.50
2019-02-17T03:34:45.058Z,5.50
2019-02-17T03:37:15.510Z,5.40
2019-02-17T03:39:45.782Z,5.40
2019-02-17T03:42:16.047Z,5.40
2019-02-17T03:44:46.502Z,5.30
2019-02-17T03:47:16.757Z,5.40
2019-02-17T03:49:47.363Z,5.40
2019-02-17T03:52:18.352Z,5.40
2019-02-17T03:54:48.585Z,5.40
2019-02-17T03:57:18.817Z,5.40
2019-02-17T03:59:49.372Z,5.30
2019-02-17T04:02:20.799Z,5.30
2019-02-17T04:04:51.021Z,5.30
2019-02-17T04:07:21.592Z,5.30
2019-02-17T04:09:52.142Z,5.30
2019-02-17T04:12:22.839Z,5.20
2019-02-17T04:14:54.426Z,5.30
2019-02-17T04:17:24.749Z,5.20
2019-02-17T04:19:55.038Z,5.20
2019-02-17T04:22:26.203Z,5.20
2019-02-17T04:24:57.756Z,5.20
2019-02-17T04:27:28.072Z,5.20
2019-02-17T04:29:58.321Z,5.20
2019-02-17T04:32:28.678Z,5.10
2019-02-17T04:34:59.329Z,5.10
2019-02-17T04:37:30.081Z,5.10
2019-02-17T04:40:02.461Z,5.10
2019-02-17T04:42:32.935Z,5.00
2019-02-17T04:45:03.511Z,5.00
2019-02-17T04:47:33.818Z,5.00
2019-02-17T04:50:04.514Z,5.00
2019-02-17T04:52:35.406Z,5.00
2019-02-17T04:55:06.323Z,5.00
2019-02-17T04:57:36.579Z,5.00
2019-02-17T05:00:07.978Z,4.90
2019-02-17T05:02:38.405Z,4.90
2019-02-17T05:05:08.640Z,4.90
2019-02-17T05:07:38.934Z,4.90
2019-02-17T05:10:09.348Z,4.90
2019-02-17T05:12:39.945Z,4.90
2019-02-17T05:15:11.119Z,4.90
2019-02-17T05:17:41.680Z,4.90
2019-02-17T05:20:12.089Z,4.80
2019-02-17T05:22:43.591Z,4.80
2019-02-17T05:25:13.838Z,4.80
2019-02-17T05:27:44.317Z,4.70
2019-02-17T05:30:14.854Z,4.70
2019-02-17T05:32:45.398Z,4.70
2019-02-17T05:35:15.662Z,4.60
2019-02-17T05:37:46.156Z,4.60
2019-02-17T05:40:16.394Z,4.60
2019-02-17T05:42:46.647Z,4.60
2019-02-17T05:45:17.133Z,4.60
2019-02-17T05:47:47.300Z,4.60
2019-02-17T05:50:17.879Z,4.60
2019-02-17T05:52:48.118Z,4.50
2019-02-17T05:55:18.470Z,4.50
2019-02-17T05:57:48.861Z,4.50
2019-02-17T06:00:21.737Z,4.50
2019-02-17T06:02:51.986Z,4.50
2019-02-17T06:05:22.597Z,4.50
2019-02-17T06:07:52.924Z,4.60
2019-02-17T06:10:23.667Z,4.50
2019-02-17T06:12:53.896Z,4.60
2019-02-17T06:15:25.323Z,4.60
2019-02-17T06:17:55.632Z,4.60
2019-02-17T06:20:25.879Z,4.60
2019-02-17T06:22:56.643Z,4.60
2019-02-17T06:25:26.904Z,4.50
2019-02-17T06:27:57.651Z,4.60
2019-02-17T06:30:27.894Z,4.60
2019-02-17T06:32:58.400Z,4.60
2019-02-17T06:35:28.651Z,5.30
2019-02-17T06:37:59.476Z,5.70
2019-02-17T06:40:29.709Z,5.80
2019-02-17T06:43:00.238Z,5.90
2019-02-17T06:45:33.140Z,6.10
2019-02-17T06:48:03.588Z,6.10
2019-02-17T06:50:33.852Z,5.90
2019-02-17T06:53:04.799Z,5.50
2019-02-17T06:55:55.644Z,5.30
2019-02-17T06:58:26.125Z,5.10
2019-02-17T07:00:58.546Z,5.10
2019-02-17T07:03:29.072Z,5.20
2019-02-17T07:06:05.430Z,5.10
2019-02-17T07:08:35.988Z,5.00
2019-02-17T07:11:06.242Z,5.00
2019-02-17T07:13:38.529Z,5.10
2019-02-17T07:16:11.344Z,5.20
2019-02-17T07:18:42.363Z,5.50
2019-02-17T07:21:12.639Z,5.50
2019-02-17T07:23:43.276Z,5.50
2019-02-17T07:26:13.579Z,5.60
2019-02-17T07:28:44.642Z,5.70
2019-02-17T07:31:15.084Z,5.80
2019-02-17T07:33:45.790Z,5.80
2019-02-17T07:36:16.092Z,6.10
2019-02-17T07:38:46.593Z,6.90
2019-02-17T07:41:16.984Z,6.30
2019-02-17T07:43:47.946Z,6.20
2019-02-17T07:46:18.245Z,6.20
2019-02-17T07:48:48.953Z,6.20
2019-02-17T07:51:19.208Z,6.20
2019-02-17T07:53:50.687Z,6.20
2019-02-17T07:56:20.982Z,6.20
2019-02-17T07:58:51.494Z,6.10
2019-02-17T08:03:01.231Z,6.10
2019-02-17T08:05:31.714Z,6.10
2019-02-17T08:08:01.975Z,6.00
2019-02-17T08:10:32.459Z,6.10
2019-02-17T08:13:02.698Z,6.10
2019-02-17T08:15:33.209Z,6.30
2019-02-17T08:18:04.955Z,6.30
2019-02-17T08:20:36.595Z,6.40
2019-02-17T08:23:07.164Z,6.50
2019-02-17T08:25:38.125Z,6.80
2019-02-17T08:28:08.350Z,7.20
2019-02-17T08:30:38.844Z,7.30
2019-02-17T08:33:09.102Z,7.00
2019-02-17T08:35:39.391Z,6.90
2019-02-17T08:38:10.137Z,7.60
2019-02-17T08:40:40.462Z,7.70
2019-02-17T08:43:10.715Z,8.20
2019-02-17T08:45:41.145Z,8.60
2019-02-17T08:48:11.439Z,8.70
2019-02-17T08:50:41.720Z,8.70
2019-02-17T08:53:49.865Z,8.30
2019-02-17T08:56:20.519Z,8.90
2019-02-17T08:58:51.059Z,8.60
2019-02-17T09:01:21.323Z,8.30
2019-02-17T09:03:51.579Z,7.90
2019-02-17T09:06:22.192Z,8.00
2019-02-17T09:08:52.559Z,8.10
2019-02-17T09:11:23.573Z,7.80
2019-02-17T09:13:53.860Z,7.60
2019-02-17T09:16:24.327Z,7.80
2019-02-17T09:18:55.343Z,7.80
2019-02-17T09:21:25.998Z,8.30
2019-02-17T09:23:56.374Z,8.20
2019-02-17T09:26:29.550Z,8.20
2019-02-17T09:29:00.412Z,8.30
2019-02-17T09:31:31.921Z,8.60
2019-02-17T09:34:02.247Z,8.20
2019-02-17T09:36:32.678Z,8.70
2019-02-17T09:39:04.902Z,8.80
2019-02-17T09:41:35.815Z,9.20
2019-02-17T09:44:06.578Z,9.50
2019-02-17T09:46:36.840Z,9.80
2019-02-17T09:49:07.325Z,9.80
2019-02-17T09:51:37.758Z,10.00
2019-02-17T09:54:08.386Z,9.20
2019-02-17T09:56:38.998Z,8.90
2019-02-17T09:59:09.750Z,9.00
2019-02-17T10:01:40.026Z,9.70
2019-02-17T10:04:10.384Z,9.60
2019-02-17T10:06:40.678Z,9.80
2019-02-17T10:09:11.304Z,9.50
2019-02-17T10:11:41.715Z,9.80
2019-02-17T10:14:12.330Z,10.00
2019-02-17T10:16:42.578Z,9.90
2019-02-17T10:19:14.018Z,10.10
2019-02-17T10:21:44.245Z,10.10
2019-02-17T10:24:14.564Z,10.10
2019-02-17T10:26:45.712Z,10.30
2019-02-17T10:29:16.418Z,10.40
2019-02-17T10:31:47.179Z,10.20
2019-02-17T10:34:18.084Z,10.00
2019-02-17T10:36:48.342Z,10.30
2019-02-17T10:39:19.194Z,10.50
2019-02-17T10:41:49.451Z,10.50
2019-02-17T10:44:20.199Z,10.70
2019-02-17T10:46:50.582Z,10.80
2019-02-17T10:49:20.961Z,10.90
2019-02-17T10:51:51.278Z,11.20
2019-02-17T10:54:23.123Z,10.00
2019-02-17T10:56:53.912Z,9.90
2019-02-17T10:59:24.483Z,10.40
2019-02-17T11:01:54.734Z,10.90
2019-02-17T11:04:25.386Z,11.00
2019-02-17T11:06:55.658Z,11.00
2019-02-17T11:09:26.425Z,10.60
2019-02-17T11:11:56.693Z,10.60
2019-02-17T11:14:27.181Z,10.40
2019-02-17T11:16:57.476Z,9.80
2019-02-17T11:19:28.543Z,10.10
2019-02-17T11:21:58.906Z,10.30
2019-02-17T11:24:30.647Z,10.50
2019-02-17T11:27:01.457Z,10.10
2019-02-17T11:29:32.032Z,10.10
2019-02-17T11:32:02.285Z,9.90
2019-02-17T11:34:34.766Z,10.00
2019-02-17T11:37:05.018Z,10.80
2019-02-17T11:39:35.539Z,10.50
2019-02-17T11:42:05.841Z,10.40
2019-02-17T11:44:36.545Z,10.70
2019-02-17T11:47:07.449Z,10.30
2019-02-17T11:49:38.259Z,10.60
2019-02-17T11:52:08.493Z,10.60
2019-02-17T11:54:39.017Z,10.40
2019-02-17T11:57:09.190Z,10.60
2019-02-17T11:59:40.071Z,10.80
2019-02-17T12:02:10.318Z,10.60
2019-02-17T12:04:40.851Z,11.10
2019-02-17T12:07:11.258Z,10.80
2019-02-17T12:09:42.183Z,11.30
2019-02-17T12:12:13.737Z,11.50
2019-02-17T12:14:44.602Z,10.70
2019-02-17T12:17:14.818Z,10.30
2019-02-17T12:19:45.999Z,10.50
2019-02-17T12:22:30.563Z,10.70
2019-02-17T12:25:14.855Z,10.40
2019-02-17T12:28:03.467Z,10.40
2019-02-17T12:30:34.038Z,10.80
2019-02-17T12:33:04.323Z,11.20
2019-02-17T12:35:34.792Z,10.60
2019-02-17T12:38:05.055Z,10.30
2019-02-17T12:40:35.532Z,10.30
2019-02-17T12:43:05.787Z,10.20
2019-02-17T12:45:36.287Z,10.10
2019-02-17T12:48:06.571Z,10.20
2019-02-17T12:50:37.354Z,10.10
2019-02-17T12:53:07.671Z,10.00
2019-02-17T12:55:38.095Z,9.80
2019-02-17T12:58:09.033Z,10.00
2019-02-17T13:00:39.774Z,9.80
2019-02-17T13:03:10.097Z,9.80
2019-02-17T13:05:40.509Z,9.80
2019-02-17T13:08:10.900Z,9.90
2019-02-17T13:10:41.274Z,9.80
2019-02-17T13:13:11.567Z,10.00
2019-02-17T13:15:41.995Z,10.10
2019-02-17T13:18:12.247Z,10.00
2019-02-17T13:20:43.498Z,10.00
2019-02-17T13:23:13.717Z,9.80
2019-02-17T13:25:43.976Z,9.90
2019-02-17T13:28:14.958Z,9.90
2019-02-17T13:30:45.221Z,9.80
2019-02-17T13:33:15.562Z,9.90
2019-02-17T13:35:45.945Z,9.90
2019-02-17T13:38:16.320Z,9.90
2019-02-17T13:40:47.013Z,9.90
2019-02-17T13:43:17.308Z,9.90
2019-02-17T13:45:48.980Z,9.90
2019-02-17T13:48:19.258Z,9.90
2019-02-17T13:50:49.749Z,9.90
2019-02-17T13:53:20.002Z,9.80
2019-02-17T13:55:50.812Z,9.80
2019-02-17T13:58:21.489Z,9.60
2019-02-17T14:00:52.191Z,9.70
2019-02-17T14:03:22.502Z,9.80
2019-02-17T14:05:53.089Z,9.80
2019-02-17T14:08:23.327Z,9.80
2019-02-17T14:10:53.956Z,9.70
2019-02-17T14:13:24.301Z,9.60
2019-02-17T14:15:54.693Z,9.60
2019-02-17T14:18:24.960Z,9.60
2019-02-17T14:20:57.314Z,9.50
2019-02-17T14:23:27.590Z,9.50
2019-02-17T14:25:58.070Z,9.50
2019-02-17T14:28:28.778Z,9.40
2019-02-17T14:30:59.465Z,9.40
2019-02-17T14:33:29.687Z,9.40
2019-02-17T14:36:00.333Z,9.40
2019-02-17T14:38:30.618Z,9.30
2019-02-17T14:41:01.133Z,9.30
2019-02-17T14:43:31.514Z,9.30
2019-02-17T14:46:02.052Z,9.30
2019-02-17T14:48:32.355Z,9.30
2019-02-17T14:51:02.701Z,9.30
2019-02-17T14:53:33.050Z,9.30
2019-02-17T14:56:03.530Z,9.40
2019-02-17T14:58:34.306Z,9.40
2019-02-17T15:01:04.914Z,9.30
2019-02-17T15:03:36.265Z,9.30
2019-02-17T15:06:06.840Z,9.30
2019-02-17T15:08:37.115Z,9.30
2019-02-17T15:11:07.381Z,9.20
2019-02-17T15:13:37.850Z,9.20
2019-02-17T15:16:09.922Z,9.20
2019-02-17T15:18:40.364Z,9.10
2019-02-17T15:21:12.156Z,9.10
2019-02-17T15:23:42.412Z,9.10
2019-02-17T15:26:12.742Z,9.10
2019-02-17T15:28:50.677Z,9.10
2019-02-17T15:31:15.697Z,9.10
2019-02-17T15:33:47.141Z,9.10
2019-02-17T15:36:18.329Z,9.10
2019-02-17T15:38:48.597Z,9.10
2019-02-17T15:41:18.880Z,9.30
2019-02-17T15:43:49.381Z,9.20
2019-02-17T15:46:19.652Z,9.10
2019-02-17T15:48:49.894Z,9.10
2019-02-17T15:51:20.670Z,9.20
2019-02-17T15:53:50.927Z,9.20
2019-02-17T15:56:21.200Z,9.10
2019-02-17T15:58:52.271Z,9.10
2019-02-17T16:01:22.565Z,9.10
2019-02-17T16:03:52.992Z,9.00
2019-02-17T16:06:23.300Z,9.00
2019-02-17T16:08:53.609Z,9.00
2019-02-17T16:11:24.274Z,9.00
2019-02-17T16:13:54.540Z,8.90
2019-02-17T16:16:27.226Z,8.90
2019-02-17T16:18:57.458Z,8.90
2019-02-17T16:21:28.868Z,8.90
2019-02-17T16:23:59.027Z,8.90
2019-02-17T16:26:29.321Z,9.00
2019-02-17T16:28:59.820Z,8.80
2019-02-17T16:31:30.112Z,8.90
2019-02-17T16:34:00.463Z,8.90
2019-02-17T16:36:30.823Z,8.90
2019-02-17T16:39:01.093Z,8.90
2019-02-17T16:41:33.031Z,8.80
2019-02-17T16:44:03.612Z,8.80
2019-02-17T16:46:33.900Z,8.80
2019-02-17T16:49:04.204Z,8.70
2019-02-17T16:51:34.766Z,8.80
2019-02-17T16:54:05.193Z,8.80
2019-02-17T16:56:35.448Z,8.70
2019-02-17T16:59:06.162Z,8.70
2019-02-17T17:01:36.463Z,8.80
2019-02-17T17:04:06.950Z,8.80
2019-02-17T17:06:37.224Z,8.80
2019-02-17T17:09:09.534Z,8.80
2019-02-17T17:11:40.421Z,8.80
2019-02-17T17:14:10.916Z,8.80
2019-02-17T17:16:41.216Z,8.70
2019-02-17T17:19:11.471Z,8.70
2019-02-17T17:21:43.111Z,8.70
2019-02-17T17:24:13.450Z,8.70
2019-02-17T17:26:43.714Z,8.80
2019-02-17T17:29:14.766Z,8.80
2019-02-17T17:31:45.074Z,8.80
2019-02-17T17:34:15.507Z,8.80
2019-02-17T17:36:45.967Z,8.70
2019-02-17T17:39:16.351Z,8.80
2019-02-17T17:41:47.120Z,8.80
2019-02-17T17:44:18.791Z,8.80
2019-02-17T17:46:49.121Z,8.80
2019-02-17T17:49:19.629Z,8.70
2019-02-17T17:51:50.148Z,8.80
2019-02-17T17:54:20.430Z,8.90
2019-02-17T17:56:51.813Z,8.80
2019-02-17T17:59:23.191Z,8.80
2019-02-17T18:01:53.511Z,8.70
2019-02-17T18:04:23.905Z,8.70
2019-02-17T18:06:54.335Z,8.60
2019-02-17T18:09:24.620Z,8.70
2019-02-17T18:11:55.244Z,8.70
2019-02-17T18:14:25.733Z,8.70
2019-02-17T18:16:56.272Z,8.70
2019-02-17T18:19:26.843Z,8.70
2019-02-17T18:21:58.369Z,8.70
2019-02-17T18:24:28.900Z,8.70
2019-02-17T18:26:59.617Z,8.70
2019-02-17T18:29:29.894Z,8.70
2019-02-17T18:32:00.788Z,8.70
2019-02-17T18:34:31.554Z,8.70
2019-02-17T18:37:02.046Z,8.80
2019-02-17T18:39:32.340Z,8.80
2019-02-17T18:42:02.621Z,8.80
2019-02-17T18:44:33.212Z,8.90
2019-02-17T18:47:03.559Z,8.80
2019-02-17T18:49:33.933Z,8.90
2019-02-17T18:52:04.606Z,8.70
2019-02-17T18:54:38.447Z,8.70
2019-02-17T18:57:08.759Z,8.80
2019-02-17T18:59:39.569Z,8.70
2019-02-17T19:02:09.860Z,8.80
2019-02-17T19:04:40.330Z,8.90
2019-02-17T19:07:10.711Z,8.90
2019-02-17T19:09:41.403Z,8.90
2019-02-17T19:12:11.729Z,8.90
2019-02-17T19:14:42.433Z,8.80
2019-02-17T19:17:12.716Z,8.80
2019-02-17T19:19:43.508Z,8.90
2019-02-17T19:22:14.578Z,8.80
2019-02-17T19:24:45.191Z,8.70
2019-02-17T19:27:15.701Z,8.80
2019-02-17T19:29:46.547Z,8.80
2019-02-17T19:32:16.855Z,8.70
2019-02-17T19:34:47.393Z,8.60
2019-02-17T19:37:17.788Z,8.70
2019-02-17T19:39:48.387Z,8.60
2019-02-17T19:42:18.699Z,8.70
2019-02-17T19:44:49.393Z,8.80
2019-02-17T19:47:20.858Z,8.70
2019-02-17T19:49:51.343Z,8.60
2019-02-17T19:52:21.647Z,8.60
2019-02-17T19:54:51.962Z,8.70
2019-02-17T19:57:22.259Z,8.70
2019-02-17T19:59:53.204Z,8.60
2019-02-17T20:02:39.980Z,8.60
2019-02-17T20:05:14.572Z,8.70
2019-02-17T20:07:44.829Z,8.70
2019-02-17T20:10:15.588Z,8.80
2019-02-17T20:12:45.875Z,8.80
2019-02-17T20:15:16.346Z,8.90
2019-02-17T20:17:47.783Z,8.80
2019-02-17T20:20:18.187Z,8.80
2019-02-17T20:22:49.410Z,8.90
2019-02-17T20:25:21.175Z,8.90
2019-02-17T20:27:51.476Z,8.90
2019-02-17T20:30:22.379Z,8.80
2019-02-17T20:32:52.796Z,8.80
2019-02-17T20:35:23.327Z,9.00
2019-02-17T20:37:53.671Z,8.90
2019-02-17T20:40:24.384Z,8.80
2019-02-17T20:42:54.821Z,8.90
2019-02-17T20:45:25.519Z,8.90
2019-02-17T20:47:55.857Z,8.90
2019-02-17T20:50:26.506Z,8.90
2019-02-17T20:52:57.090Z,8.90
2019-02-17T20:55:27.563Z,9.00
2019-02-17T20:57:57.886Z,9.00
2019-02-17T21:00:29.576Z,8.90
2019-02-17T21:02:59.807Z,8.90
2019-02-17T21:05:31.523Z,8.90
2019-02-17T21:08:02.800Z,8.90
2019-02-17T21:10:33.790Z,8.90
2019-02-17T21:13:04.274Z,8.90
2019-02-17T21:15:34.876Z,9.00
2019-02-17T21:18:05.175Z,9.10
2019-02-17T21:20:35.850Z,9.10
2019-02-17T21:23:07.002Z,9.10
2019-02-17T21:25:37.580Z,9.20
2019-02-17T21:28:07.969Z,9.20
2019-02-17T21:30:38.674Z,9.20
2019-02-17T21:33:09.000Z,9.10
2019-02-17T21:35:41.336Z,9.10
2019-02-17T21:38:11.667Z,9.10
2019-02-17T21:40:42.108Z,9.10
2019-02-17T21:43:12.355Z,9.00
2019-02-17T21:45:42.633Z,9.00
2019-02-17T21:48:13.281Z,9.10
2019-02-17T21:50:43.835Z,9.10
2019-02-17T21:53:20.479Z,9.10
2019-02-17T21:55:47.848Z,9.10
2019-02-17T21:58:18.458Z,9.10
2019-02-17T22:00:49.603Z,9.10
2019-02-17T22:03:20.164Z,9.10
2019-02-17T22:05:50.520Z,9.10
2019-02-17T22:08:21.207Z,9.20
2019-02-17T22:10:51.459Z,9.10
2019-02-17T22:13:21.753Z,9.10
2019-02-17T22:15:52.282Z,9.10
2019-02-17T22:18:23.627Z,8.90
2019-02-17T22:20:53.954Z,8.80
2019-02-17T22:23:25.595Z,8.80
2019-02-17T22:25:55.932Z,8.80
2019-02-17T22:28:26.257Z,8.70
2019-02-17T22:30:56.891Z,8.70
2019-02-17T22:33:27.250Z,8.70
2019-02-17T22:35:57.569Z,8.70
2019-02-17T22:38:28.172Z,8.60
2019-02-17T22:40:58.453Z,8.60
2019-02-17T22:43:29.755Z,8.50
2019-02-17T22:46:00.366Z,8.50
2019-02-17T22:48:30.634Z,8.50
2019-02-17T22:51:00.914Z,8.50
2019-02-17T22:53:31.381Z,8.40
2019-02-17T22:56:01.628Z,8.40
2019-02-17T22:58:31.883Z,8.40
2019-02-17T23:01:04.801Z,8.30
2019-02-17T23:03:37.012Z,8.40
2019-02-17T23:06:07.941Z,8.30
2019-02-17T23:08:38.475Z,8.20
2019-02-17T23:11:09.519Z,8.20
2019-02-17T23:13:40.056Z,8.20
2019-02-17T23:16:10.709Z,8.20
2019-02-17T23:18:40.978Z,8.20
2019-02-17T23:21:11.458Z,8.30
2019-02-17T23:23:42.884Z,8.30
2019-02-17T23:26:13.441Z,8.20
2019-02-17T23:28:43.771Z,8.20
2019-02-17T23:31:15.112Z,8.00
2019-02-17T23:33:45.364Z,7.90
2019-02-17T23:36:16.131Z,7.90
2019-02-17T23:38:46.365Z,8.00
2019-02-17T23:41:16.639Z,7.90
2019-02-17T23:43:47.757Z,7.80
2019-02-17T23:46:18.012Z,7.80
2019-02-17T23:48:48.509Z,7.80
2019-02-17T23:51:18.771Z,7.70
2019-02-17T23:53:49.265Z,7.80
2019-02-17T23:56:19.547Z,7.70
2019-02-17T23:58:50.018Z,7.70
